sensor_id;sensor_type;location;lat;lon;timestamp;temperature;humidity
6756;DHT22;3415;51.148;7.014;2022-07-29T06:36:59;20.90;99.90
6756;DHT22;3415;51.148;7.014;2022-07-29T06:39:27;21.00;99.90
6756;DHT22;3415;51.148;7.014;2022-07-29T06:41:54;21.10;99.90
6756;DHT22;3415;51.148;7.014;2022-07-29T06:44:21;21.20;99.90
6756;DHT22;3415;51.148;7.014;2022-07-29T06:46:48;21.20;99.90
6756;DHT22;3415;51.148;7.014;2022-07-29T06:49:17;21.00;99.90
6756;DHT22;3415;51.148;7.014;2022-07-29T06:51:44;20.80;99.90
6756;DHT22;3415;51.148;7.014;2022-07-29T06:54:13;20.60;99.90
6756;DHT22;3415;51.148;7.014;2022-07-29T06:56:40;20.30;99.90
6756;DHT22;3415;51.148;7.014;2022-07-29T06:59:09;20.10;99.90
6756;DHT22;3415;51.148;7.014;2022-07-29T07:01:39;19.90;99.90
6756;DHT22;3415;51.148;7.014;2022-07-29T07:04:08;19.80;99.90
6756;DHT22;3415;51.148;7.014;2022-07-29T07:06:35;19.70;99.90
6756;DHT22;3415;51.148;7.014;2022-07-29T07:09:03;19.70;99.90
6756;DHT22;3415;51.148;7.014;2022-07-29T07:11:31;19.60;99.90
6756;DHT22;3415;51.148;7.014;2022-07-29T07:13:58;19.60;99.90
6756;DHT22;3415;51.148;7.014;2022-07-29T07:16:26;19.60;99.90
6756;DHT22;3415;51.148;7.014;2022-07-29T07:18:53;19.60;99.90
6756;DHT22;3415;51.148;7.014;2022-07-29T07:21:20;19.60;99.90
6756;DHT22;3415;51.148;7.014;2022-07-29T07:23:47;19.50;99.90
6756;DHT22;3415;51.148;7.014;2022-07-29T07:26:14;19.50;99.90
6756;DHT22;3415;51.148;7.014;2022-07-29T07:28:43;19.60;99.90
6756;DHT22;3415;51.148;7.014;2022-07-29T07:31:10;19.60;99.90
6756;DHT22;3415;51.148;7.014;2022-07-29T07:33:37;19.50;99.90
6756;DHT22;3415;51.148;7.014;2022-07-29T07:36:05;19.20;99.90
6756;DHT22;3415;51.148;7.014;2022-07-29T07:38:32;19.10;99.90
6756;DHT22;3415;51.148;7.014;2022-07-29T07:40:59;19.10;99.90
6756;DHT22;3415;51.148;7.014;2022-07-29T07:43:27;19.20;1.00
6756;DHT22;3415;51.148;7.014;2022-07-29T07:45:55;19.20;1.00
6756;DHT22;3415;51.148;7.014;2022-07-29T07:48:22;19.10;1.00
6756;DHT22;3415;51.148;7.014;2022-07-29T07:50:49;19.00;1.00
6756;DHT22;3415;51.148;7.014;2022-07-29T07:53:17;18.90;1.00
6756;DHT22;3415;51.148;7.014;2022-07-29T07:55:45;18.90;1.00
6756;DHT22;3415;51.148;7.014;2022-07-29T07:58:12;19.10;1.00
6756;DHT22;3415;51.148;7.014;2022-07-29T08:00:39;19.10;1.00
6756;DHT22;3415;51.148;7.014;2022-07-29T08:03:07;19.10;1.00
6756;DHT22;3415;51.148;7.014;2022-07-29T08:05:38;18.90;1.00
6756;DHT22;3415;51.148;7.014;2022-07-29T08:08:05;18.80;1.00
6756;DHT22;3415;51.148;7.014;2022-07-29T08:10:32;18.80;1.00
6756;DHT22;3415;51.148;7.014;2022-07-29T08:13:18;18.90;1.00
6756;DHT22;3415;51.148;7.014;2022-07-29T08:15:46;19.10;1.00
6756;DHT22;3415;51.148;7.014;2022-07-29T08:18:24;19.00;1.00
6756;DHT22;3415;51.148;7.014;2022-07-29T08:20:51;19.10;1.00
6756;DHT22;3415;51.148;7.014;2022-07-29T08:23:18;19.20;1.00
6756;DHT22;3415;51.148;7.014;2022-07-29T08:25:45;19.40;1.00
6756;DHT22;3415;51.148;7.014;2022-07-29T08:28:12;19.60;1.00
6756;DHT22;3415;51.148;7.014;2022-07-29T08:30:39;19.70;1.00
6756;DHT22;3415;51.148;7.014;2022-07-29T08:33:07;19.80;99.90
6756;DHT22;3415;51.148;7.014;2022-07-29T08:35:35;20.00;99.90
6756;DHT22;3415;51.148;7.014;2022-07-29T08:38:02;20.10;99.90
6756;DHT22;3415;51.148;7.014;2022-07-29T08:40:29;20.10;99.90
6756;DHT22;3415;51.148;7.014;2022-07-29T08:42:57;20.10;99.90
6756;DHT22;3415;51.148;7.014;2022-07-29T08:45:25;20.00;99.90
6756;DHT22;3415;51.148;7.014;2022-07-29T08:47:55;20.00;99.90
6756;DHT22;3415;51.148;7.014;2022-07-29T08:50:22;19.90;99.90
6756;DHT22;3415;51.148;7.014;2022-07-29T08:52:51;19.80;99.90
6756;DHT22;3415;51.148;7.014;2022-07-29T08:55:18;19.90;99.90
6756;DHT22;3415;51.148;7.014;2022-07-29T08:57:46;20.00;99.90
6756;DHT22;3415;51.148;7.014;2022-07-29T09:00:14;19.90;99.90
6756;DHT22;3415;51.148;7.014;2022-07-29T09:02:46;19.90;99.90
6756;DHT22;3415;51.148;7.014;2022-07-29T09:05:17;20.00;99.90
6756;DHT22;3415;51.148;7.014;2022-07-29T09:07:45;20.00;99.90
6756;DHT22;3415;51.148;7.014;2022-07-29T09:10:14;20.10;99.90
6756;DHT22;3415;51.148;7.014;2022-07-29T09:12:42;20.20;99.90
6756;DHT22;3415;51.148;7.014;2022-07-29T09:15:09;20.20;99.90
6756;DHT22;3415;51.148;7.014;2022-07-29T09:17:39;20.40;99.90
6756;DHT22;3415;51.148;7.014;2022-07-29T09:20:11;20.50;99.90
6756;DHT22;3415;51.148;7.014;2022-07-29T09:22:39;20.50;99.90
6756;DHT22;3415;51.148;7.014;2022-07-29T09:25:07;20.50;99.90
6756;DHT22;3415;51.148;7.014;2022-07-29T09:27:35;20.60;99.90
6756;DHT22;3415;51.148;7.014;2022-07-29T09:30:04;20.60;99.90
6756;DHT22;3415;51.148;7.014;2022-07-29T09:32:33;20.60;99.90
6756;DHT22;3415;51.148;7.014;2022-07-29T09:35:22;20.50;99.90
6756;DHT22;3415;51.148;7.014;2022-07-29T09:37:50;20.60;99.90
6756;DHT22;3415;51.148;7.014;2022-07-29T09:40:19;20.50;1.00
6756;DHT22;3415;51.148;7.014;2022-07-29T09:42:51;20.60;1.00
6756;DHT22;3415;51.148;7.014;2022-07-29T09:45:28;20.40;1.00
6756;DHT22;3415;51.148;7.014;2022-07-29T09:47:57;20.30;1.00
6756;DHT22;3415;51.148;7.014;2022-07-29T09:50:38;20.20;1.00
6756;DHT22;3415;51.148;7.014;2022-07-29T09:53:06;20.20;1.00
6756;DHT22;3415;51.148;7.014;2022-07-29T09:55:46;20.20;1.00
6756;DHT22;3415;51.148;7.014;2022-07-29T09:58:18;20.40;1.00
6756;DHT22;3415;51.148;7.014;2022-07-29T10:00:47;20.40;1.00
6756;DHT22;3415;51.148;7.014;2022-07-29T10:05:45;20.30;1.00
6756;DHT22;3415;51.148;7.014;2022-07-29T10:08:12;20.20;1.00
6756;DHT22;3415;51.148;7.014;2022-07-29T10:10:42;20.20;1.00
6756;DHT22;3415;51.148;7.014;2022-07-29T10:13:11;20.00;1.00
6756;DHT22;3415;51.148;7.014;2022-07-29T10:15:42;20.00;1.00
6756;DHT22;3415;51.148;7.014;2022-07-29T10:18:11;20.00;1.00
6756;DHT22;3415;51.148;7.014;2022-07-29T10:20:40;20.10;1.00
6756;DHT22;3415;51.148;7.014;2022-07-29T10:23:08;20.10;1.00
6756;DHT22;3415;51.148;7.014;2022-07-29T10:25:35;20.10;1.00
6756;DHT22;3415;51.148;7.014;2022-07-29T10:28:04;20.10;1.00
6756;DHT22;3415;51.148;7.014;2022-07-29T10:30:32;20.10;1.00
6756;DHT22;3415;51.148;7.014;2022-07-29T10:33:16;20.10;1.00
6756;DHT22;3415;51.148;7.014;2022-07-29T10:36:05;20.10;1.00
6756;DHT22;3415;51.148;7.014;2022-07-29T10:38:44;20.20;1.00
6756;DHT22;3415;51.148;7.014;2022-07-29T10:44:21;20.90;1.00
6756;DHT22;3415;51.148;7.014;2022-07-29T10:46:50;20.90;1.00
6756;DHT22;3415;51.148;7.014;2022-07-29T10:49:21;21.00;1.00
6756;DHT22;3415;51.148;7.014;2022-07-29T10:52:04;20.80;1.00
6756;DHT22;3415;51.148;7.014;2022-07-29T10:54:40;20.90;1.00
6756;DHT22;3415;51.148;7.014;2022-07-29T10:57:17;21.10;1.00
6756;DHT22;3415;51.148;7.014;2022-07-29T10:59:47;21.20;1.00
6756;DHT22;3415;51.148;7.014;2022-07-29T11:02:43;21.00;1.00
6756;DHT22;3415;51.148;7.014;2022-07-29T11:05:16;21.10;1.00
6756;DHT22;3415;51.148;7.014;2022-07-29T11:08:20;21.20;1.00
6756;DHT22;3415;51.148;7.014;2022-07-29T11:10:50;21.30;1.00
6756;DHT22;3415;51.148;7.014;2022-07-29T11:13:49;21.50;1.00
6756;DHT22;3415;51.148;7.014;2022-07-29T11:16:18;21.60;1.00
6756;DHT22;3415;51.148;7.014;2022-07-29T11:19:21;23.70;1.00
6756;DHT22;3415;51.148;7.014;2022-07-29T11:21:49;23.90;1.00
6756;DHT22;3415;51.148;7.014;2022-07-29T11:24:20;24.50;99.90
6756;DHT22;3415;51.148;7.014;2022-07-29T11:27:09;24.90;99.90
6756;DHT22;3415;51.148;7.014;2022-07-29T11:29:40;26.00;99.90
6756;DHT22;3415;51.148;7.014;2022-07-29T11:32:16;27.30;99.90
6756;DHT22;3415;51.148;7.014;2022-07-29T11:34:45;27.20;99.90
6756;DHT22;3415;51.148;7.014;2022-07-29T11:37:22;28.10;99.90
6756;DHT22;3415;51.148;7.014;2022-07-29T11:40:10;29.20;99.90
6756;DHT22;3415;51.148;7.014;2022-07-29T11:42:40;29.60;99.90
6756;DHT22;3415;51.148;7.014;2022-07-29T11:45:10;30.30;99.90
6756;DHT22;3415;51.148;7.014;2022-07-29T11:47:40;30.30;99.90
6756;DHT22;3415;51.148;7.014;2022-07-29T11:50:10;30.20;99.90
6756;DHT22;3415;51.148;7.014;2022-07-29T11:52:40;29.40;99.90
6756;DHT22;3415;51.148;7.014;2022-07-29T11:55:14;29.40;99.90
6756;DHT22;3415;51.148;7.014;2022-07-29T11:57:49;29.10;99.90
6756;DHT22;3415;51.148;7.014;2022-07-29T12:00:27;30.30;99.90
6756;DHT22;3415;51.148;7.014;2022-07-29T12:02:55;30.30;99.90
6756;DHT22;3415;51.148;7.014;2022-07-29T12:05:36;31.00;99.90
6756;DHT22;3415;51.148;7.014;2022-07-29T12:08:11;30.40;99.90
6756;DHT22;3415;51.148;7.014;2022-07-29T12:10:41;31.00;99.90
6756;DHT22;3415;51.148;7.014;2022-07-29T12:13:09;31.10;99.90
6756;DHT22;3415;51.148;7.014;2022-07-29T12:15:37;31.00;99.90
6756;DHT22;3415;51.148;7.014;2022-07-29T12:18:11;31.50;99.90
6756;DHT22;3415;51.148;7.014;2022-07-29T12:20:40;32.40;99.90
6756;DHT22;3415;51.148;7.014;2022-07-29T12:23:09;31.50;99.90
6756;DHT22;3415;51.148;7.014;2022-07-29T12:25:40;30.50;99.90
6756;DHT22;3415;51.148;7.014;2022-07-29T12:28:09;29.00;99.90
6756;DHT22;3415;51.148;7.014;2022-07-29T12:30:42;28.30;99.90
6756;DHT22;3415;51.148;7.014;2022-07-29T12:33:16;27.80;99.90
6756;DHT22;3415;51.148;7.014;2022-07-29T12:35:47;27.30;99.90
6756;DHT22;3415;51.148;7.014;2022-07-29T12:38:17;27.40;99.90
6756;DHT22;3415;51.148;7.014;2022-07-29T12:40:46;27.30;99.90
6756;DHT22;3415;51.148;7.014;2022-07-29T12:43:15;27.00;99.90
6756;DHT22;3415;51.148;7.014;2022-07-29T12:45:45;26.90;99.90
6756;DHT22;3415;51.148;7.014;2022-07-29T12:48:15;27.20;99.90
6756;DHT22;3415;51.148;7.014;2022-07-29T12:50:55;27.20;99.90
6756;DHT22;3415;51.148;7.014;2022-07-29T12:53:25;27.10;99.90
6756;DHT22;3415;51.148;7.014;2022-07-29T12:55:53;27.00;99.90
6756;DHT22;3415;51.148;7.014;2022-07-29T12:58:32;26.60;99.90
6756;DHT22;3415;51.148;7.014;2022-07-29T13:01:09;26.10;99.90
6756;DHT22;3415;51.148;7.014;2022-07-29T13:03:51;25.80;99.90
6756;DHT22;3415;51.148;7.014;2022-07-29T13:06:33;25.50;99.90
6756;DHT22;3415;51.148;7.014;2022-07-29T13:09:05;25.50;99.90
6756;DHT22;3415;51.148;7.014;2022-07-29T13:11:35;25.90;99.90
6756;DHT22;3415;51.148;7.014;2022-07-29T13:14:06;26.40;99.90
6756;DHT22;3415;51.148;7.014;2022-07-29T13:16:34;26.30;99.90
6756;DHT22;3415;51.148;7.014;2022-07-29T13:19:09;26.60;99.90
6756;DHT22;3415;51.148;7.014;2022-07-29T13:21:38;26.50;99.90
6756;DHT22;3415;51.148;7.014;2022-07-29T13:24:08;26.50;99.90
6756;DHT22;3415;51.148;7.014;2022-07-29T13:26:39;26.70;99.90
6756;DHT22;3415;51.148;7.014;2022-07-29T13:29:06;26.80;99.90
6756;DHT22;3415;51.148;7.014;2022-07-29T13:31:33;26.70;99.90
6756;DHT22;3415;51.148;7.014;2022-07-29T13:34:00;26.40;99.90
6756;DHT22;3415;51.148;7.014;2022-07-29T13:36:27;26.20;99.90
6756;DHT22;3415;51.148;7.014;2022-07-29T13:38:55;26.30;99.90
6756;DHT22;3415;51.148;7.014;2022-07-29T13:41:23;26.40;99.90
6756;DHT22;3415;51.148;7.014;2022-07-29T13:43:50;26.50;99.90
6756;DHT22;3415;51.148;7.014;2022-07-29T13:46:17;26.50;99.90
6756;DHT22;3415;51.148;7.014;2022-07-29T13:48:44;26.70;99.90
6756;DHT22;3415;51.148;7.014;2022-07-29T13:51:11;26.90;99.90
6756;DHT22;3415;51.148;7.014;2022-07-29T13:53:38;26.80;99.90
6756;DHT22;3415;51.148;7.014;2022-07-29T13:56:05;26.70;99.90
6756;DHT22;3415;51.148;7.014;2022-07-29T13:58:34;26.50;99.90
6756;DHT22;3415;51.148;7.014;2022-07-29T14:01:01;26.50;99.90
6756;DHT22;3415;51.148;7.014;2022-07-29T14:03:28;26.70;99.90
6756;DHT22;3415;51.148;7.014;2022-07-29T14:05:55;26.70;99.90
6756;DHT22;3415;51.148;7.014;2022-07-29T14:08:25;26.60;99.90
6756;DHT22;3415;51.148;7.014;2022-07-29T14:13:20;26.30;99.90
6756;DHT22;3415;51.148;7.014;2022-07-29T14:15:48;26.50;99.90
6756;DHT22;3415;51.148;7.014;2022-07-29T14:18:15;26.50;99.90
6756;DHT22;3415;51.148;7.014;2022-07-29T14:20:42;26.20;99.90
6756;DHT22;3415;51.148;7.014;2022-07-29T14:23:09;26.20;99.90
6756;DHT22;3415;51.148;7.014;2022-07-29T14:25:36;26.20;99.90
6756;DHT22;3415;51.148;7.014;2022-07-29T14:28:04;26.00;99.90
6756;DHT22;3415;51.148;7.014;2022-07-29T14:33:00;26.10;99.90
6756;DHT22;3415;51.148;7.014;2022-07-29T14:35:27;26.10;99.90
6756;DHT22;3415;51.148;7.014;2022-07-29T14:37:54;26.20;99.90
6756;DHT22;3415;51.148;7.014;2022-07-29T14:40:21;26.10;99.90
6756;DHT22;3415;51.148;7.014;2022-07-29T14:42:48;26.20;99.90
6756;DHT22;3415;51.148;7.014;2022-07-29T14:45:15;26.10;99.90
6756;DHT22;3415;51.148;7.014;2022-07-29T14:47:42;26.00;99.90
6756;DHT22;3415;51.148;7.014;2022-07-29T14:50:11;26.10;99.90
6756;DHT22;3415;51.148;7.014;2022-07-29T14:52:39;26.00;99.90
6756;DHT22;3415;51.148;7.014;2022-07-29T14:55:06;26.00;99.90
6756;DHT22;3415;51.148;7.014;2022-07-29T15:00:01;25.70;99.90
6756;DHT22;3415;51.148;7.014;2022-07-29T15:02:29;25.40;99.90
6756;DHT22;3415;51.148;7.014;2022-07-29T15:04:56;25.50;99.90
6756;DHT22;3415;51.148;7.014;2022-07-29T15:07:33;25.60;99.90
6756;DHT22;3415;51.148;7.014;2022-07-29T15:10:01;25.90;99.90
6756;DHT22;3415;51.148;7.014;2022-07-29T15:12:29;26.00;99.90
6756;DHT22;3415;51.148;7.014;2022-07-29T15:14:56;25.80;99.90
6756;DHT22;3415;51.148;7.014;2022-07-29T15:17:24;25.50;99.90
6756;DHT22;3415;51.148;7.014;2022-07-29T15:19:51;25.40;99.90
6756;DHT22;3415;51.148;7.014;2022-07-29T15:22:18;25.30;99.90
6756;DHT22;3415;51.148;7.014;2022-07-29T15:24:47;25.40;99.90
6756;DHT22;3415;51.148;7.014;2022-07-29T15:27:14;25.50;99.90
6756;DHT22;3415;51.148;7.014;2022-07-29T15:29:41;25.70;99.90
6756;DHT22;3415;51.148;7.014;2022-07-29T15:32:09;25.60;99.90
6756;DHT22;3415;51.148;7.014;2022-07-29T15:34:38;25.60;99.90
6756;DHT22;3415;51.148;7.014;2022-07-29T15:39:33;25.60;99.90
6756;DHT22;3415;51.148;7.014;2022-07-29T15:42:02;25.50;99.90
6756;DHT22;3415;51.148;7.014;2022-07-29T15:44:30;25.30;99.90
6756;DHT22;3415;51.148;7.014;2022-07-29T15:46:57;25.40;99.90
6756;DHT22;3415;51.148;7.014;2022-07-29T15:49:33;25.10;99.90
6756;DHT22;3415;51.148;7.014;2022-07-29T15:52:02;25.00;99.90
6756;DHT22;3415;51.148;7.014;2022-07-29T15:54:32;24.90;99.90
6756;DHT22;3415;51.148;7.014;2022-07-29T15:59:28;24.70;99.90
6756;DHT22;3415;51.148;7.014;2022-07-29T16:01:55;24.80;99.90
6756;DHT22;3415;51.148;7.014;2022-07-29T16:04:22;25.00;99.90
6756;DHT22;3415;51.148;7.014;2022-07-29T16:06:50;25.00;99.90
6756;DHT22;3415;51.148;7.014;2022-07-29T16:09:18;24.90;99.90
6756;DHT22;3415;51.148;7.014;2022-07-29T16:11:46;24.80;99.90
6756;DHT22;3415;51.148;7.014;2022-07-29T16:14:16;24.60;99.90
6756;DHT22;3415;51.148;7.014;2022-07-29T16:16:45;24.50;99.90
6756;DHT22;3415;51.148;7.014;2022-07-29T16:19:13;24.60;99.90
6756;DHT22;3415;51.148;7.014;2022-07-29T16:21:41;24.70;99.90
6756;DHT22;3415;51.148;7.014;2022-07-29T16:24:08;24.70;99.90
6756;DHT22;3415;51.148;7.014;2022-07-29T16:26:36;24.70;99.90
6756;DHT22;3415;51.148;7.014;2022-07-29T16:29:04;24.70;99.90
6756;DHT22;3415;51.148;7.014;2022-07-29T16:31:32;24.70;99.90
6756;DHT22;3415;51.148;7.014;2022-07-29T16:34:01;24.60;99.90
6756;DHT22;3415;51.148;7.014;2022-07-29T16:36:28;24.50;99.90
6756;DHT22;3415;51.148;7.014;2022-07-29T16:38:56;24.40;99.90
6756;DHT22;3415;51.148;7.014;2022-07-29T16:41:24;24.30;99.90
6756;DHT22;3415;51.148;7.014;2022-07-29T16:43:52;24.20;99.90
6756;DHT22;3415;51.148;7.014;2022-07-29T16:48:47;24.30;99.90
6756;DHT22;3415;51.148;7.014;2022-07-29T16:51:16;24.20;99.90
6756;DHT22;3415;51.148;7.014;2022-07-29T16:53:43;24.10;99.90
6756;DHT22;3415;51.148;7.014;2022-07-29T16:56:10;24.00;99.90
6756;DHT22;3415;51.148;7.014;2022-07-29T16:58:38;24.00;99.90
6756;DHT22;3415;51.148;7.014;2022-07-29T17:01:05;24.10;99.90
6756;DHT22;3415;51.148;7.014;2022-07-29T17:03:33;24.10;99.90
6756;DHT22;3415;51.148;7.014;2022-07-29T17:06:00;24.20;99.90
6756;DHT22;3415;51.148;7.014;2022-07-29T17:08:28;24.10;99.90
6756;DHT22;3415;51.148;7.014;2022-07-29T17:10:56;24.10;99.90
6756;DHT22;3415;51.148;7.014;2022-07-29T17:13:23;24.20;99.90
6756;DHT22;3415;51.148;7.014;2022-07-29T17:15:50;24.20;99.90
6756;DHT22;3415;51.148;7.014;2022-07-29T17:18:17;24.20;99.90
6756;DHT22;3415;51.148;7.014;2022-07-29T17:20:44;24.20;99.90
6756;DHT22;3415;51.148;7.014;2022-07-29T17:23:11;24.10;99.90
6756;DHT22;3415;51.148;7.014;2022-07-29T17:25:39;24.10;99.90
6756;DHT22;3415;51.148;7.014;2022-07-29T17:28:06;24.20;99.90
6756;DHT22;3415;51.148;7.014;2022-07-29T17:33:00;24.10;99.90
6756;DHT22;3415;51.148;7.014;2022-07-29T17:38:12;24.20;99.90
6756;DHT22;3415;51.148;7.014;2022-07-29T17:40:40;24.10;99.90
6756;DHT22;3415;51.148;7.014;2022-07-29T17:43:07;23.90;99.90
6756;DHT22;3415;51.148;7.014;2022-07-29T17:45:34;23.80;99.90
6756;DHT22;3415;51.148;7.014;2022-07-29T17:48:01;23.70;99.90
6756;DHT22;3415;51.148;7.014;2022-07-29T17:52:56;23.60;99.90
6756;DHT22;3415;51.148;7.014;2022-07-29T17:55:23;23.60;99.90
6756;DHT22;3415;51.148;7.014;2022-07-29T17:57:51;23.60;99.90
6756;DHT22;3415;51.148;7.014;2022-07-29T18:02:47;23.60;99.90
6756;DHT22;3415;51.148;7.014;2022-07-29T18:05:14;23.70;99.90
6756;DHT22;3415;51.148;7.014;2022-07-29T18:07:41;23.60;99.90
6756;DHT22;3415;51.148;7.014;2022-07-29T18:10:08;23.60;99.90
6756;DHT22;3415;51.148;7.014;2022-07-29T18:12:35;23.60;99.90
6756;DHT22;3415;51.148;7.014;2022-07-29T18:15:06;23.50;99.90
6756;DHT22;3415;51.148;7.014;2022-07-29T18:17:33;23.50;99.90
6756;DHT22;3415;51.148;7.014;2022-07-29T18:20:00;23.40;99.90
6756;DHT22;3415;51.148;7.014;2022-07-29T18:22:27;21.10;99.90
6756;DHT22;3415;51.148;7.014;2022-07-29T18:24:54;23.30;99.90
6756;DHT22;3415;51.148;7.014;2022-07-29T18:27:21;23.20;99.90
6756;DHT22;3415;51.148;7.014;2022-07-29T18:29:50;23.10;99.90
6756;DHT22;3415;51.148;7.014;2022-07-29T18:32:19;23.00;99.90
6756;DHT22;3415;51.148;7.014;2022-07-29T18:34:46;23.00;99.90
6756;DHT22;3415;51.148;7.014;2022-07-29T18:37:14;22.90;99.90
6756;DHT22;3415;51.148;7.014;2022-07-29T18:39:41;22.80;99.90
6756;DHT22;3415;51.148;7.014;2022-07-29T18:42:08;22.70;99.90
6756;DHT22;3415;51.148;7.014;2022-07-29T18:44:36;22.50;99.90
6756;DHT22;3415;51.148;7.014;2022-07-29T18:47:03;22.40;99.90
6756;DHT22;3415;51.148;7.014;2022-07-29T18:49:31;22.30;99.90
6756;DHT22;3415;51.148;7.014;2022-07-29T18:51:59;22.20;99.90
6756;DHT22;3415;51.148;7.014;2022-07-29T18:59:23;21.90;99.90
6756;DHT22;3415;51.148;7.014;2022-07-29T19:01:50;21.90;99.90
6756;DHT22;3415;51.148;7.014;2022-07-29T19:04:17;21.90;99.90
6756;DHT22;3415;51.148;7.014;2022-07-29T19:06:46;21.90;99.90
6756;DHT22;3415;51.148;7.014;2022-07-29T19:09:13;21.80;99.90
6756;DHT22;3415;51.148;7.014;2022-07-29T19:11:42;21.50;99.90
6756;DHT22;3415;51.148;7.014;2022-07-29T19:14:09;21.30;99.90
6756;DHT22;3415;51.148;7.014;2022-07-29T19:16:36;21.10;99.90
6756;DHT22;3415;51.148;7.014;2022-07-29T19:19:03;21.00;99.90
6756;DHT22;3415;51.148;7.014;2022-07-29T19:21:31;20.90;99.90
6756;DHT22;3415;51.148;7.014;2022-07-29T19:24:00;20.90;99.90
6756;DHT22;3415;51.148;7.014;2022-07-29T19:26:27;20.80;99.90
6756;DHT22;3415;51.148;7.014;2022-07-29T19:28:54;20.60;99.90
6756;DHT22;3415;51.148;7.014;2022-07-29T19:31:21;20.40;99.90
6756;DHT22;3415;51.148;7.014;2022-07-29T19:33:48;20.30;99.90
6756;DHT22;3415;51.148;7.014;2022-07-29T19:36:15;20.30;99.90
6756;DHT22;3415;51.148;7.014;2022-07-29T19:38:42;20.20;99.90
6756;DHT22;3415;51.148;7.014;2022-07-29T19:41:10;20.20;99.90
6756;DHT22;3415;51.148;7.014;2022-07-29T19:43:38;20.10;99.90
6756;DHT22;3415;51.148;7.014;2022-07-29T19:46:05;20.00;99.90
6756;DHT22;3415;51.148;7.014;2022-07-29T19:48:32;19.90;99.90
6756;DHT22;3415;51.148;7.014;2022-07-29T19:50:59;19.90;99.90
6756;DHT22;3415;51.148;7.014;2022-07-29T19:53:26;19.80;99.90
6756;DHT22;3415;51.148;7.014;2022-07-29T19:55:53;19.80;99.90
6756;DHT22;3415;51.148;7.014;2022-07-29T19:58:22;19.50;99.90
6756;DHT22;3415;51.148;7.014;2022-07-29T20:00:49;19.40;99.90
6756;DHT22;3415;51.148;7.014;2022-07-29T20:03:16;19.40;99.90
6756;DHT22;3415;51.148;7.014;2022-07-29T20:05:43;19.30;99.90
6756;DHT22;3415;51.148;7.014;2022-07-29T20:08:10;19.20;99.90
6756;DHT22;3415;51.148;7.014;2022-07-29T20:10:37;19.20;99.90
6756;DHT22;3415;51.148;7.014;2022-07-29T20:13:04;19.20;99.90
6756;DHT22;3415;51.148;7.014;2022-07-29T20:15:33;19.10;99.90
6756;DHT22;3415;51.148;7.014;2022-07-29T20:18:00;19.00;99.90
6756;DHT22;3415;51.148;7.014;2022-07-29T20:20:27;18.90;99.90
6756;DHT22;3415;51.148;7.014;2022-07-29T20:22:55;18.90;99.90
6756;DHT22;3415;51.148;7.014;2022-07-29T20:25:24;18.90;99.90
6756;DHT22;3415;51.148;7.014;2022-07-29T20:27:51;18.90;99.90
6756;DHT22;3415;51.148;7.014;2022-07-29T20:40:44;19.00;99.90
6756;DHT22;3415;51.148;7.014;2022-07-29T20:43:11;18.90;99.90
6756;DHT22;3415;51.148;7.014;2022-07-29T20:45:39;18.90;99.90
6756;DHT22;3415;51.148;7.014;2022-07-29T20:48:07;18.80;99.90
6756;DHT22;3415;51.148;7.014;2022-07-29T20:50:35;18.80;99.90
6756;DHT22;3415;51.148;7.014;2022-07-29T20:53:02;18.90;99.90
6756;DHT22;3415;51.148;7.014;2022-07-29T20:55:29;18.80;1.00
6756;DHT22;3415;51.148;7.014;2022-07-29T20:57:58;18.80;1.00
6756;DHT22;3415;51.148;7.014;2022-07-29T21:00:25;18.50;1.00
6756;DHT22;3415;51.148;7.014;2022-07-29T21:02:53;18.50;1.00
6756;DHT22;3415;51.148;7.014;2022-07-29T21:05:20;18.50;1.00
6756;DHT22;3415;51.148;7.014;2022-07-29T21:07:47;18.50;1.00
6756;DHT22;3415;51.148;7.014;2022-07-29T21:10:14;18.60;1.00
6756;DHT22;3415;51.148;7.014;2022-07-29T21:12:44;18.70;1.00
6756;DHT22;3415;51.148;7.014;2022-07-29T21:15:13;18.70;1.00
6756;DHT22;3415;51.148;7.014;2022-07-29T21:17:41;18.70;1.00
6756;DHT22;3415;51.148;7.014;2022-07-29T21:20:12;18.70;1.00
6756;DHT22;3415;51.148;7.014;2022-07-29T21:22:39;18.80;1.00
6756;DHT22;3415;51.148;7.014;2022-07-29T21:25:08;18.80;1.00
6756;DHT22;3415;51.148;7.014;2022-07-29T21:27:35;18.80;1.00
6756;DHT22;3415;51.148;7.014;2022-07-29T21:30:21;18.90;1.00
6756;DHT22;3415;51.148;7.014;2022-07-29T21:32:48;18.90;1.00
6756;DHT22;3415;51.148;7.014;2022-07-29T21:35:15;18.90;1.00
6756;DHT22;3415;51.148;7.014;2022-07-29T21:37:42;18.90;1.00
6756;DHT22;3415;51.148;7.014;2022-07-29T21:40:10;19.00;1.00
6756;DHT22;3415;51.148;7.014;2022-07-29T21:42:38;18.90;1.00
6756;DHT22;3415;51.148;7.014;2022-07-29T21:45:06;18.80;1.00
6756;DHT22;3415;51.148;7.014;2022-07-29T21:47:34;18.80;1.00
6756;DHT22;3415;51.148;7.014;2022-07-29T21:50:02;18.80;1.00
6756;DHT22;3415;51.148;7.014;2022-07-29T21:52:29;18.90;1.00
6756;DHT22;3415;51.148;7.014;2022-07-29T21:54:56;18.90;1.00
6756;DHT22;3415;51.148;7.014;2022-07-29T21:57:23;18.90;1.00
6756;DHT22;3415;51.148;7.014;2022-07-29T21:59:51;18.90;1.00
6756;DHT22;3415;51.148;7.014;2022-07-29T22:02:18;18.90;1.00
6756;DHT22;3415;51.148;7.014;2022-07-29T22:04:46;18.90;1.00
